createdAt,value
2023-02-21T00:01:13.623Z,101057.84
2023-02-21T00:03:34.292Z,101052.63
2023-02-21T00:05:55.034Z,101060.47
2023-02-21T00:08:17.070Z,101071.81
2023-02-21T00:10:38.004Z,101060.53
2023-02-21T00:12:58.943Z,101073.66
2023-02-21T00:15:19.782Z,101067.59
2023-02-21T00:17:40.604Z,101075.50
2023-02-21T00:20:01.424Z,101071.13
2023-02-21T00:22:22.345Z,101065.91
2023-02-21T00:24:44.418Z,101064.22
2023-02-21T00:27:05.374Z,101074.66
2023-02-21T00:29:26.436Z,101074.66
2023-02-21T00:31:47.286Z,101073.81
2023-02-21T00:34:08.109Z,101076.53
2023-02-21T00:36:34.037Z,101074.84
2023-02-21T00:38:56.163Z,101072.22
2023-02-21T00:41:18.270Z,101078.38
2023-02-21T00:43:39.062Z,101084.44
2023-02-21T00:45:59.908Z,101094.03
2023-02-21T00:48:20.801Z,101095.88
2023-02-21T00:50:41.555Z,101101.09
2023-02-21T00:53:02.474Z,101090.72
2023-02-21T00:55:24.830Z,101090.78
2023-02-21T00:57:46.958Z,101092.63
2023-02-21T01:00:08.040Z,101097.84
2023-02-21T01:02:29.551Z,101097.84
2023-02-21T01:04:50.471Z,101099.69
2023-02-21T01:07:11.597Z,101090.94
2023-02-21T01:09:32.585Z,101077.13
2023-02-21T01:11:53.343Z,101094.47
2023-02-21T01:14:16.080Z,101078.88
2023-02-21T01:16:36.863Z,101084.19
2023-02-21T01:18:57.809Z,101087.72
2023-02-21T01:21:18.957Z,101098.16
2023-02-21T01:23:39.759Z,101080.81
2023-02-21T01:26:00.677Z,101078.28
2023-02-21T01:28:22.832Z,101084.31
2023-02-21T01:30:44.896Z,101073.91
2023-02-21T01:33:05.828Z,101080.03
2023-02-21T01:35:26.682Z,101081.78
2023-02-21T01:37:47.438Z,101087.00
2023-02-21T01:40:10.393Z,101087.84
2023-02-21T01:42:31.241Z,101085.31
2023-02-21T01:44:55.069Z,101090.53
2023-02-21T01:47:17.544Z,101092.31
2023-02-21T01:49:38.497Z,101094.91
2023-02-21T01:52:01.320Z,101090.63
2023-02-21T01:54:23.130Z,101091.53
2023-02-21T01:56:45.178Z,101089.84
2023-02-21T01:59:08.549Z,101083.78
2023-02-21T02:01:40.515Z,101082.03
2023-02-21T02:04:03.966Z,101088.16
2023-02-21T02:06:27.681Z,101083.84
2023-02-21T02:08:50.906Z,101091.69
2023-02-21T02:11:20.348Z,101088.16
2023-02-21T02:13:51.456Z,101087.22
2023-02-21T02:16:02.051Z,101093.38
2023-02-21T02:18:40.950Z,101089.84
2023-02-21T02:21:14.226Z,101088.16
2023-02-21T02:23:40.960Z,101095.97
2023-02-21T02:26:04.738Z,101101.19
2023-02-21T02:28:25.180Z,101091.69
2023-02-21T02:30:47.091Z,101093.38
2023-02-21T02:33:10.705Z,101092.53
2023-02-21T02:35:23.270Z,101109.03
2023-02-21T02:37:34.333Z,101097.75
2023-02-21T02:39:43.359Z,101103.81
2023-02-21T02:41:54.487Z,101109.03
2023-02-21T02:44:04.823Z,101098.59
2023-02-21T02:46:16.334Z,101108.19
2023-02-21T02:48:23.340Z,101103.81
2023-02-21T02:50:30.157Z,101101.19
2023-02-21T02:52:33.665Z,101111.63
2023-02-21T02:54:37.532Z,101104.66
2023-02-21T02:56:41.418Z,101101.19
2023-02-21T02:58:51.306Z,101098.59
2023-02-21T03:01:06.929Z,101104.66
2023-02-21T03:03:31.731Z,101114.25
2023-02-21T03:05:54.581Z,101101.19
2023-02-21T03:08:05.464Z,101100.34
2023-02-21T03:10:17.847Z,101104.72
2023-02-21T03:12:28.599Z,101106.47
2023-02-21T03:14:39.627Z,101103.06
2023-02-21T03:16:48.448Z,101110.88
2023-02-21T03:18:56.011Z,101106.59
2023-02-21T03:21:03.118Z,101109.19
2023-02-21T03:23:07.914Z,101111.81
2023-02-21T03:25:13.056Z,101102.28
2023-02-21T03:27:19.260Z,101111.03
2023-02-21T03:29:29.634Z,101105.81
2023-02-21T03:31:39.119Z,101098.00
2023-02-21T03:33:42.676Z,101109.34
2023-02-21T03:35:46.154Z,101101.59
2023-02-21T03:37:53.592Z,101114.69
2023-02-21T03:40:00.950Z,101113.84
2023-02-21T03:42:09.623Z,101113.00
2023-02-21T03:44:14.078Z,101111.31
2023-02-21T03:46:17.530Z,101113.16
2023-02-21T03:48:31.345Z,101124.50
2023-02-21T03:50:40.642Z,101121.06
2023-02-21T03:52:44.176Z,101115.84
2023-02-21T03:54:49.080Z,101118.50
2023-02-21T03:56:56.010Z,101126.34
2023-02-21T03:59:01.750Z,101133.31
2023-02-21T04:01:05.776Z,101130.72
2023-02-21T04:03:09.827Z,101122.88
2023-02-21T04:05:19.801Z,101124.66
2023-02-21T04:07:24.034Z,101135.09
2023-02-21T04:09:27.662Z,101131.63
2023-02-21T04:11:32.732Z,101121.28
2023-02-21T04:13:36.345Z,101128.25
2023-02-21T04:15:39.883Z,101138.75
2023-02-21T04:17:43.367Z,101132.75
2023-02-21T04:19:46.726Z,101138.88
2023-02-21T04:21:50.171Z,101132.91
2023-02-21T04:23:53.599Z,101129.56
2023-02-21T04:25:58.725Z,101136.59
2023-02-21T04:28:10.360Z,101146.25
2023-02-21T04:30:14.181Z,101135.97
2023-02-21T04:32:17.958Z,101133.50
2023-02-21T04:34:21.653Z,101132.78
2023-02-21T04:36:25.093Z,101130.38
2023-02-21T04:38:28.599Z,101132.28
2023-02-21T04:40:32.521Z,101127.31
2023-02-21T04:42:35.914Z,101121.47
2023-02-21T04:44:42.854Z,101126.03
2023-02-21T04:46:48.174Z,101132.38
2023-02-21T04:48:53.485Z,101125.66
2023-02-21T04:51:01.517Z,101126.75
2023-02-21T04:53:10.347Z,101135.63
2023-02-21T04:55:13.715Z,101135.75
2023-02-21T04:57:18.460Z,101130.66
2023-02-21T04:59:21.844Z,101134.25
2023-02-21T05:01:28.989Z,101132.56
2023-02-21T05:03:32.719Z,101135.22
2023-02-21T05:05:36.164Z,101133.53
2023-02-21T05:07:39.856Z,101130.94
2023-02-21T05:09:43.284Z,101125.72
2023-02-21T05:11:46.611Z,101129.25
2023-02-21T05:13:50.459Z,101128.41
2023-02-21T05:15:53.905Z,101124.03
2023-02-21T05:17:58.853Z,101137.06
2023-02-21T05:20:02.628Z,101132.75
2023-02-21T05:22:07.667Z,101131.91
2023-02-21T05:24:11.049Z,101137.06
2023-02-21T05:26:15.258Z,101137.97
2023-02-21T05:28:18.668Z,101135.38
2023-02-21T05:30:24.007Z,101136.28
2023-02-21T05:32:29.718Z,101144.94
2023-02-21T05:34:34.632Z,101141.50
2023-02-21T05:36:38.129Z,101139.66
2023-02-21T05:38:48.100Z,101147.47
2023-02-21T05:40:51.715Z,101143.13
2023-02-21T05:42:55.134Z,101141.34
2023-02-21T05:44:58.989Z,101141.34
2023-02-21T05:47:02.995Z,101137.84
2023-02-21T05:49:06.448Z,101148.25
2023-02-21T05:51:11.248Z,101146.56
2023-02-21T05:53:14.614Z,101151.78
2023-02-21T05:55:18.174Z,101151.78
2023-02-21T05:57:21.972Z,101150.94
2023-02-21T05:59:25.302Z,101155.28
2023-02-21T06:01:28.741Z,101157.88
2023-02-21T06:03:33.239Z,101159.66
2023-02-21T06:05:36.684Z,101164.84
2023-02-21T06:07:41.505Z,101170.06
2023-02-21T06:09:44.890Z,101164.84
2023-02-21T06:11:48.372Z,101169.22
2023-02-21T06:13:52.568Z,101167.53
2023-02-21T06:15:56.787Z,101177.94
2023-02-21T06:18:00.157Z,101176.25
2023-02-21T06:20:04.013Z,101165.84
2023-02-21T06:22:07.583Z,101183.16
2023-02-21T06:24:13.205Z,101182.31
2023-02-21T06:26:17.478Z,101181.47
2023-02-21T06:28:20.863Z,101190.19
2023-02-21T06:30:24.382Z,101199.69
2023-02-21T06:32:27.875Z,101202.28
2023-02-21T06:34:31.290Z,101200.59
2023-02-21T06:36:35.761Z,101204.13
2023-02-21T06:38:39.405Z,101205.81
2023-02-21T06:40:45.031Z,101210.09
2023-02-21T06:42:48.417Z,101204.00
2023-02-21T06:44:51.947Z,101207.50
2023-02-21T06:46:55.912Z,101209.19
2023-02-21T06:48:59.904Z,101204.00
2023-02-21T06:51:05.592Z,101203.13
2023-02-21T06:53:09.049Z,101201.38
2023-02-21T06:55:12.395Z,101202.22
2023-02-21T06:57:17.228Z,101210.88
2023-02-21T06:59:20.627Z,101207.38
2023-02-21T07:01:24.410Z,101203.84
2023-02-21T07:03:27.968Z,101215.97
2023-02-21T07:05:34.748Z,101208.16
2023-02-21T07:07:38.314Z,101190.78
2023-02-21T07:09:41.784Z,101202.03
2023-02-21T07:11:47.190Z,101213.25
2023-02-21T07:13:53.392Z,101214.94
2023-02-21T07:15:56.906Z,101217.47
2023-02-21T07:18:00.329Z,101216.56
2023-02-21T07:20:04.694Z,101227.81
2023-02-21T07:22:08.209Z,101226.84
2023-02-21T07:24:11.637Z,101227.69
2023-02-21T07:26:15.761Z,101225.88
2023-02-21T07:28:19.396Z,101231.03
2023-02-21T07:30:24.257Z,101235.22
2023-02-21T07:32:27.818Z,101232.63
2023-02-21T07:34:31.218Z,101229.03
2023-02-21T07:36:34.614Z,101233.25
2023-02-21T07:38:38.098Z,101245.31
2023-02-21T07:40:41.451Z,101236.53
2023-02-21T07:42:45.514Z,101247.72
2023-02-21T07:44:49.296Z,101247.59
2023-02-21T07:46:54.269Z,101245.84
2023-02-21T07:48:58.432Z,101250.06
2023-02-21T07:51:01.834Z,101250.84
2023-02-21T07:53:05.226Z,101257.75
2023-02-21T07:55:08.937Z,101254.25
2023-02-21T07:57:12.354Z,101262.00
2023-02-21T07:59:16.719Z,101266.19
2023-02-21T08:01:24.341Z,101261.81
2023-02-21T08:03:29.308Z,101271.28
2023-02-21T08:05:33.613Z,101264.22
2023-02-21T08:07:37.422Z,101267.63
2023-02-21T08:09:42.339Z,101276.22
2023-02-21T08:11:45.779Z,101264.75
2023-02-21T08:13:49.212Z,101265.53
2023-02-21T08:15:52.618Z,101273.22
2023-02-21T08:17:56.231Z,101280.06
2023-02-21T08:20:01.243Z,101279.06
2023-02-21T08:22:04.666Z,101276.41
2023-02-21T08:24:10.496Z,101265.81
2023-02-21T08:26:13.946Z,101277.00
2023-02-21T08:28:18.125Z,101276.03
2023-02-21T08:30:21.912Z,101282.94
2023-02-21T08:32:25.401Z,101279.41
2023-02-21T08:34:30.387Z,101288.09
2023-02-21T08:36:36.489Z,101283.72
2023-02-21T08:38:41.206Z,101291.47
2023-02-21T08:40:45.378Z,101283.66
2023-02-21T08:42:50.715Z,101290.50
2023-02-21T08:44:54.117Z,101291.28
2023-02-21T08:46:57.547Z,101285.94
2023-02-21T08:49:01.115Z,101291.84
2023-02-21T08:51:05.049Z,101289.78
2023-02-21T08:53:11.165Z,101285.28
2023-02-21T08:55:15.189Z,101294.66
2023-02-21T08:57:18.751Z,101297.13
2023-02-21T08:59:22.312Z,101300.44
2023-02-21T09:01:31.873Z,101299.38
2023-02-21T09:03:35.964Z,101302.78
2023-02-21T09:05:40.351Z,101308.66
2023-02-21T09:07:44.444Z,101311.06
2023-02-21T09:09:50.092Z,101310.94
2023-02-21T09:11:53.475Z,101310.78
2023-02-21T09:13:56.934Z,101315.03
2023-02-21T09:16:01.388Z,101310.50
2023-02-21T09:18:06.579Z,101308.66
2023-02-21T09:20:12.049Z,101316.34
2023-02-21T09:22:16.762Z,101317.13
2023-02-21T09:24:25.257Z,101324.03
2023-02-21T09:26:32.982Z,101311.81
2023-02-21T09:28:43.455Z,101317.13
2023-02-21T09:30:47.589Z,101324.03
2023-02-21T09:32:51.283Z,101324.78
2023-02-21T09:34:54.692Z,101327.34
2023-02-21T09:36:58.325Z,101320.22
2023-02-21T09:39:06.547Z,101320.22
2023-02-21T09:41:12.588Z,101326.28
2023-02-21T09:43:20.988Z,101321.06
2023-02-21T09:45:31.882Z,101331.34
2023-02-21T09:47:39.076Z,101336.50
2023-02-21T09:49:45.157Z,101333.75
2023-02-21T09:51:50.415Z,101329.31
2023-02-21T09:53:57.334Z,101330.91
2023-02-21T09:56:03.459Z,101337.75
2023-02-21T09:58:12.988Z,101344.47
2023-02-21T10:00:25.728Z,101332.19
2023-02-21T10:02:41.869Z,101352.09
2023-02-21T10:04:58.903Z,101345.03
2023-02-21T10:07:12.007Z,101346.72
2023-02-21T10:09:26.705Z,101354.47
2023-02-21T10:11:43.540Z,101346.44
2023-02-21T10:13:55.604Z,101347.97
2023-02-21T10:16:05.100Z,101352.19
2023-02-21T10:18:19.299Z,101351.22
2023-02-21T10:20:36.861Z,101354.56
2023-02-21T10:22:46.452Z,101350.88
2023-02-21T10:24:50.531Z,101357.72
2023-02-21T10:26:59.896Z,101354.03
2023-02-21T10:29:04.680Z,101353.81
2023-02-21T10:31:13.430Z,101355.28
2023-02-21T10:33:18.011Z,101351.50
2023-02-21T10:35:21.499Z,101358.28
2023-02-21T10:37:39.345Z,101370.28
2023-02-21T10:39:46.366Z,101357.81
2023-02-21T10:41:51.191Z,101362.03
2023-02-21T10:44:01.189Z,101367.97
2023-02-21T10:46:09.970Z,101369.31
2023-02-21T10:48:16.590Z,101367.16
2023-02-21T10:50:39.057Z,101368.56
2023-02-21T10:52:50.101Z,101360.22
2023-02-21T10:55:05.375Z,101372.06
2023-02-21T10:57:11.568Z,101369.28
2023-02-21T10:59:24.174Z,101364.66
2023-02-21T11:01:37.956Z,101361.88
2023-02-21T11:03:48.290Z,101372.19
2023-02-21T11:05:52.848Z,101368.47
2023-02-21T11:08:02.619Z,101375.38
2023-02-21T11:10:28.294Z,101374.44
2023-02-21T11:12:31.915Z,101373.53
2023-02-21T11:14:36.445Z,101372.59
2023-02-21T11:16:39.932Z,101373.53
2023-02-21T11:18:43.443Z,101366.59
2023-02-21T11:20:48.501Z,101368.28
2023-02-21T11:22:52.834Z,101359.50
2023-02-21T11:25:02.465Z,101361.97
2023-02-21T11:27:05.977Z,101349.66
2023-02-21T11:29:15.304Z,101351.94
2023-02-21T11:31:28.496Z,101349.75
2023-02-21T11:33:34.015Z,101351.00
2023-02-21T11:35:41.560Z,101356.00
2023-02-21T11:37:52.149Z,101361.25
2023-02-21T11:39:55.630Z,101356.00
2023-02-21T11:42:00.361Z,101352.47
2023-02-21T11:44:03.929Z,101343.59
2023-02-21T11:46:18.031Z,101349.59
2023-02-21T11:48:31.189Z,101341.66
2023-02-21T11:50:40.408Z,101354.66
2023-02-21T11:52:49.453Z,101351.13
2023-02-21T11:54:54.310Z,101360.75
2023-02-21T11:57:05.023Z,101357.38
2023-02-21T11:59:19.818Z,101356.69
2023-02-21T12:01:30.403Z,101349.84
2023-02-21T12:03:47.888Z,101348.31
2023-02-21T12:05:58.767Z,101349.41
2023-02-21T12:08:19.564Z,101349.56
2023-02-21T12:10:45.225Z,101355.66
2023-02-21T12:12:56.980Z,101357.53
2023-02-21T12:15:13.592Z,101356.84
2023-02-21T12:17:30.857Z,101353.63
2023-02-21T12:19:54.325Z,101351.19
2023-02-21T12:22:16.238Z,101350.41
2023-02-21T12:24:32.247Z,101347.78
2023-02-21T12:26:51.974Z,101353.03
2023-02-21T12:29:08.291Z,101354.81
2023-02-21T12:31:23.714Z,101352.44
2023-02-21T12:33:38.572Z,101354.28
2023-02-21T12:36:12.649Z,101361.38
2023-02-21T12:38:25.214Z,101359.59
2023-02-21T12:40:35.854Z,101356.13
2023-02-21T12:43:11.041Z,101358.66
2023-02-21T12:45:26.767Z,101358.81
2023-02-21T12:47:33.344Z,101355.56
2023-02-21T12:49:48.741Z,101363.56
2023-02-21T12:51:58.679Z,101355.09
2023-02-21T12:54:06.828Z,101365.72
2023-02-21T12:56:16.471Z,101353.72
2023-02-21T12:58:27.456Z,101348.66
2023-02-21T13:00:36.506Z,101353.19
2023-02-21T13:02:46.681Z,101354.41
2023-02-21T13:04:55.700Z,101366.88
2023-02-21T13:07:04.220Z,101352.31
2023-02-21T13:09:18.972Z,101355.16
2023-02-21T13:11:28.593Z,101356.25
2023-02-21T13:13:35.081Z,101355.50
2023-02-21T13:15:42.213Z,101353.91
2023-02-21T13:17:53.126Z,101362.59
2023-02-21T13:20:04.037Z,101352.91
2023-02-21T13:23:04.552Z,101346.72
2023-02-21T13:25:22.376Z,101351.78
2023-02-21T13:27:57.451Z,101352.47
2023-02-21T13:30:07.514Z,101355.00
2023-02-21T13:32:13.695Z,101347.00
2023-02-21T13:34:24.398Z,101352.84
2023-02-21T13:36:31.840Z,101354.41
2023-02-21T13:38:35.387Z,101359.28
2023-02-21T13:40:44.087Z,101363.44
2023-02-21T13:42:47.689Z,101353.72
2023-02-21T13:44:55.293Z,101351.81
2023-02-21T13:47:11.702Z,101349.19
2023-02-21T13:49:53.210Z,101353.56
2023-02-21T13:52:16.668Z,101364.28
2023-02-21T13:54:24.812Z,101354.06
2023-02-21T13:56:45.390Z,101357.78
2023-02-21T13:58:50.203Z,101359.63
2023-02-21T14:00:56.123Z,101350.84
2023-02-21T14:03:03.092Z,101350.69
2023-02-21T14:05:08.322Z,101355.25
2023-02-21T14:07:11.678Z,101351.16
2023-02-21T14:09:16.881Z,101349.63
2023-02-21T14:11:23.877Z,101351.47
2023-02-21T14:13:36.554Z,101354.16
2023-02-21T14:15:44.351Z,101349.94
2023-02-21T14:17:49.336Z,101355.25
2023-02-21T14:19:55.441Z,101362.25
2023-02-21T14:22:04.087Z,101356.31
2023-02-21T14:24:14.633Z,101347.19
2023-02-21T14:26:37.669Z,101348.44
2023-02-21T14:29:06.222Z,101345.97
2023-02-21T14:31:13.797Z,101352.28
2023-02-21T14:33:23.729Z,101347.97
2023-02-21T14:35:34.441Z,101350.66
2023-02-21T14:37:43.553Z,101357.56
2023-02-21T14:39:50.661Z,101351.50
2023-02-21T14:42:08.338Z,101358.59
2023-02-21T14:44:25.418Z,101348.28
2023-02-21T14:47:10.267Z,101346.59
2023-02-21T14:49:52.508Z,101339.53
2023-02-21T14:52:25.873Z,101346.44
2023-02-21T14:55:11.237Z,101341.38
2023-02-21T14:57:45.344Z,101353.69
2023-02-21T15:00:06.285Z,101358.13
2023-02-21T15:02:24.960Z,101360.88
2023-02-21T15:04:38.501Z,101368.81
2023-02-21T15:06:45.154Z,101355.97
2023-02-21T15:08:51.045Z,101361.34
2023-02-21T15:11:00.528Z,101363.19
2023-02-21T15:13:06.429Z,101363.31
2023-02-21T15:15:17.474Z,101371.34
2023-02-21T15:17:23.982Z,101368.88
2023-02-21T15:19:30.678Z,101365.63
2023-02-21T15:21:34.058Z,101360.56
2023-02-21T15:23:38.463Z,101363.25
2023-02-21T15:25:42.308Z,101366.78
2023-02-21T15:28:03.263Z,101365.91
2023-02-21T15:30:14.958Z,101367.75
2023-02-21T15:32:19.238Z,101366.06
2023-02-21T15:34:27.660Z,101363.59
2023-02-21T15:36:33.120Z,101368.88
2023-02-21T15:38:42.163Z,101364.66
2023-02-21T15:40:46.086Z,101359.56
2023-02-21T15:42:52.230Z,101370.16
2023-02-21T15:45:00.176Z,101375.53
2023-02-21T15:47:09.513Z,101377.38
2023-02-21T15:49:21.177Z,101373.97
2023-02-21T15:51:24.501Z,101373.19
2023-02-21T15:53:27.961Z,101372.34
2023-02-21T15:55:32.548Z,101385.47
2023-02-21T15:57:36.282Z,101378.56
2023-02-21T15:59:41.073Z,101377.94
2023-02-21T16:01:44.703Z,101373.00
2023-02-21T16:03:49.555Z,101368.91
2023-02-21T16:05:52.994Z,101372.66
2023-02-21T16:08:04.691Z,101368.50
2023-02-21T16:10:11.583Z,101370.38
2023-02-21T16:12:28.207Z,101368.06
2023-02-21T16:14:39.472Z,101372.72
2023-02-21T16:16:43.107Z,101362.56
2023-02-21T16:18:46.538Z,101363.66
2023-02-21T16:21:00.880Z,101362.97
2023-02-21T16:23:16.289Z,101366.66
2023-02-21T16:25:22.281Z,101368.47
2023-02-21T16:27:25.699Z,101367.63
2023-02-21T16:29:29.104Z,101372.91
2023-02-21T16:31:36.793Z,101381.66
2023-02-21T16:33:40.339Z,101376.50
2023-02-21T16:35:44.612Z,101379.16
2023-02-21T16:37:51.443Z,101384.38
2023-02-21T16:39:55.215Z,101385.28
2023-02-21T16:41:58.774Z,101381.84
2023-02-21T16:44:02.177Z,101388.75
2023-02-21T16:46:07.629Z,101387.91
2023-02-21T16:48:15.974Z,101387.06
2023-02-21T16:50:23.862Z,101392.22
2023-02-21T16:52:28.924Z,101393.91
2023-02-21T16:54:33.878Z,101393.84
2023-02-21T16:56:39.923Z,101389.47
2023-02-21T16:58:45.622Z,101391.16
2023-02-21T17:00:49.070Z,101403.28
2023-02-21T17:02:54.136Z,101398.94
2023-02-21T17:04:57.557Z,101402.44
2023-02-21T17:07:04.597Z,101401.59
2023-02-21T17:09:08.053Z,101405.13
2023-02-21T17:11:13.163Z,101408.63
2023-02-21T17:13:17.398Z,101405.25
2023-02-21T17:15:23.864Z,101408.78
2023-02-21T17:17:27.317Z,101412.28
2023-02-21T17:19:30.742Z,101412.28
2023-02-21T17:21:34.140Z,101413.19
2023-02-21T17:23:37.508Z,101412.34
2023-02-21T17:25:40.930Z,101421.03
2023-02-21T17:27:46.395Z,101418.41
2023-02-21T17:29:50.041Z,101420.13
2023-02-21T17:31:54.967Z,101422.72
2023-02-21T17:33:58.836Z,101419.25
2023-02-21T17:36:03.326Z,101428.84
2023-02-21T17:38:07.135Z,101424.53
2023-02-21T17:40:14.266Z,101419.34
2023-02-21T17:42:17.634Z,101422.84
2023-02-21T17:44:22.805Z,101428.06
2023-02-21T17:46:26.372Z,101426.38
2023-02-21T17:48:29.820Z,101429.88
2023-02-21T17:50:33.305Z,101430.81
2023-02-21T17:52:36.898Z,101428.19
2023-02-21T17:54:40.715Z,101443.00
2023-02-21T17:56:44.164Z,101440.44
2023-02-21T17:58:47.784Z,101443.97
2023-02-21T18:00:55.513Z,101447.47
2023-02-21T18:02:59.448Z,101448.34
2023-02-21T18:05:02.885Z,101448.34
2023-02-21T18:07:06.356Z,101445.66
2023-02-21T18:09:11.151Z,101447.34
2023-02-21T18:11:17.631Z,101449.06
2023-02-21T18:13:23.967Z,101446.44
2023-02-21T18:15:28.987Z,101443.84
2023-02-21T18:17:33.723Z,101442.94
2023-02-21T18:19:37.430Z,101450.75
2023-02-21T18:21:41.539Z,101449.91
2023-02-21T18:23:46.435Z,101451.66
2023-02-21T18:25:50.133Z,101454.28
2023-02-21T18:27:53.525Z,101455.13
2023-02-21T18:29:56.915Z,101455.13
2023-02-21T18:32:00.412Z,101460.34
2023-02-21T18:34:08.132Z,101455.97
2023-02-21T18:36:12.019Z,101452.56
2023-02-21T18:38:16.702Z,101457.78
2023-02-21T18:40:21.236Z,101463.00
2023-02-21T18:42:24.982Z,101463.00
2023-02-21T18:44:29.224Z,101452.63
2023-02-21T18:46:32.919Z,101459.59
2023-02-21T18:48:36.379Z,101456.16
2023-02-21T18:50:41.624Z,101451.00
2023-02-21T18:52:45.130Z,101455.38
2023-02-21T18:54:50.785Z,101456.31
2023-02-21T18:56:54.280Z,101454.63
2023-02-21T18:58:57.970Z,101454.53
2023-02-21T19:01:01.626Z,101460.69
2023-02-21T19:03:06.524Z,101464.13
2023-02-21T19:05:16.171Z,101464.13
2023-02-21T19:07:21.120Z,101466.66
2023-02-21T19:09:24.484Z,101461.44
2023-02-21T19:11:27.851Z,101454.53
2023-02-21T19:13:31.336Z,101457.13
2023-02-21T19:15:34.840Z,101465.81
2023-02-21T19:17:38.708Z,101454.41
2023-02-21T19:19:42.146Z,101455.19
2023-02-21T19:21:46.193Z,101462.16
2023-02-21T19:23:51.182Z,101459.47
2023-02-21T19:25:55.175Z,101459.47
2023-02-21T19:28:00.571Z,101468.22
2023-02-21T19:30:04.280Z,101459.47
2023-02-21T19:32:07.872Z,101464.69
2023-02-21T19:34:11.732Z,101462.88
2023-02-21T19:36:15.337Z,101462.88
2023-02-21T19:38:19.306Z,101467.19
2023-02-21T19:40:24.849Z,101472.41
2023-02-21T19:42:28.226Z,101464.56
2023-02-21T19:44:31.823Z,101469.78
2023-02-21T19:46:36.001Z,101468.03
2023-02-21T19:48:39.594Z,101470.63
2023-02-21T19:50:43.095Z,101476.69
2023-02-21T19:52:52.116Z,101479.31
2023-02-21T19:54:55.544Z,101476.69
2023-02-21T19:57:00.479Z,101479.31
2023-02-21T19:59:03.920Z,101480.09
2023-02-21T20:01:08.356Z,101478.41
2023-02-21T20:03:12.333Z,101488.84
2023-02-21T20:05:17.391Z,101483.69
2023-02-21T20:07:20.826Z,101481.91
2023-02-21T20:09:24.702Z,101481.91
2023-02-21T20:11:28.447Z,101478.41
2023-02-21T20:13:33.239Z,101481.00
2023-02-21T20:15:37.496Z,101491.38
2023-02-21T20:17:40.918Z,101487.00
2023-02-21T20:19:44.307Z,101481.78
2023-02-21T20:21:47.802Z,101483.50
2023-02-21T20:23:51.795Z,101489.56
2023-02-21T20:25:55.186Z,101488.78
2023-02-21T20:27:58.599Z,101486.16
2023-02-21T20:30:04.337Z,101488.72
2023-02-21T20:32:08.355Z,101486.94
2023-02-21T20:34:11.773Z,101485.19
2023-02-21T20:36:16.679Z,101483.38
2023-02-21T20:38:20.146Z,101488.50
2023-02-21T20:40:24.208Z,101488.47
2023-02-21T20:42:27.776Z,101490.16
2023-02-21T20:44:35.394Z,101485.78
2023-02-21T20:46:40.301Z,101492.69
2023-02-21T20:48:43.723Z,101489.19
2023-02-21T20:50:47.357Z,101488.31
2023-02-21T20:52:51.079Z,101487.47
2023-02-21T20:54:54.534Z,101486.63
2023-02-21T20:56:59.040Z,101490.16
2023-02-21T20:59:02.843Z,101488.47
2023-02-21T21:01:06.536Z,101486.81
2023-02-21T21:03:15.299Z,101488.59
2023-02-21T21:05:18.926Z,101492.03
2023-02-21T21:07:24.943Z,101489.44
2023-02-21T21:09:34.121Z,101482.44
2023-02-21T21:11:37.783Z,101485.91
2023-02-21T21:13:41.872Z,101486.75
2023-02-21T21:15:45.274Z,101491.06
2023-02-21T21:17:49.731Z,101489.38
2023-02-21T21:19:55.002Z,101488.47
2023-02-21T21:21:58.341Z,101492.75
2023-02-21T21:24:01.756Z,101492.69
2023-02-21T21:26:08.627Z,101487.41
2023-02-21T21:28:13.473Z,101490.03
2023-02-21T21:30:22.921Z,101489.88
2023-02-21T21:32:26.811Z,101494.16
2023-02-21T21:34:33.473Z,101493.25
2023-02-21T21:36:38.489Z,101494.94
2023-02-21T21:38:42.392Z,101485.38
2023-02-21T21:40:47.957Z,101493.13
2023-02-21T21:42:53.904Z,101493.13
2023-02-21T21:44:58.489Z,101487.91
2023-02-21T21:47:02.327Z,101488.81
2023-02-21T21:49:06.465Z,101490.59
2023-02-21T21:51:10.366Z,101490.59
2023-02-21T21:53:16.481Z,101488.94
2023-02-21T21:55:22.936Z,101488.03
2023-02-21T21:57:27.368Z,101486.34
2023-02-21T21:59:32.663Z,101486.34
2023-02-21T22:01:36.730Z,101486.34
2023-02-21T22:03:40.239Z,101485.44
2023-02-21T22:05:44.592Z,101487.19
2023-02-21T22:07:49.176Z,101485.50
2023-02-21T22:09:54.476Z,101479.44
2023-02-21T22:11:57.833Z,101482.03
2023-02-21T22:14:01.356Z,101475.06
2023-02-21T22:16:05.099Z,101477.72
2023-02-21T22:18:08.525Z,101470.84
2023-02-21T22:20:17.924Z,101470.84
2023-02-21T22:22:21.351Z,101469.16
2023-02-21T22:24:25.837Z,101474.38
2023-02-21T22:26:32.382Z,101469.22
2023-02-21T22:28:38.449Z,101470.97
2023-02-21T22:30:42.212Z,101471.84
2023-02-21T22:32:46.099Z,101464.78
2023-02-21T22:34:51.339Z,101467.31
2023-02-21T22:36:56.457Z,101467.22
2023-02-21T22:39:02.078Z,101467.16
2023-02-21T22:41:05.622Z,101461.81
2023-02-21T22:43:11.363Z,101470.44
2023-02-21T22:45:14.767Z,101460.84
2023-02-21T22:47:19.113Z,101461.56
2023-02-21T22:49:24.145Z,101464.03
2023-02-21T22:51:29.257Z,101460.59
2023-02-21T22:53:32.653Z,101464.88
2023-02-21T22:55:37.737Z,101461.44
2023-02-21T22:57:41.076Z,101461.44
2023-02-21T22:59:46.110Z,101457.91
2023-02-21T23:01:50.881Z,101457.91
2023-02-21T23:03:54.796Z,101457.91
2023-02-21T23:06:02.167Z,101455.31
2023-02-21T23:08:07.425Z,101450.16
2023-02-21T23:10:16.589Z,101448.53
2023-02-21T23:12:21.280Z,101441.66
2023-02-21T23:14:24.959Z,101439.06
2023-02-21T23:16:29.784Z,101443.38
2023-02-21T23:18:33.169Z,101439.00
2023-02-21T23:20:36.693Z,101434.56
2023-02-21T23:22:40.026Z,101434.56
2023-02-21T23:24:45.936Z,101435.47
2023-02-21T23:26:50.023Z,101441.53
2023-02-21T23:28:53.618Z,101430.25
2023-02-21T23:30:58.367Z,101432.09
2023-02-21T23:33:06.387Z,101434.69
2023-02-21T23:35:09.708Z,101442.53
2023-02-21T23:37:13.285Z,101426.88
2023-02-21T23:39:16.813Z,101433.78
2023-02-21T23:41:20.686Z,101428.44
2023-02-21T23:43:26.290Z,101424.91
2023-02-21T23:45:29.636Z,101439.59
2023-02-21T23:47:33.107Z,101430.00
2023-02-21T23:49:44.223Z,101430.78
2023-02-21T23:51:48.647Z,101423.78
2023-02-21T23:53:52.067Z,101430.72
2023-02-21T23:55:59.683Z,101429.00
2023-02-21T23:58:09.012Z,101426.53
